createdAt,value
2023-05-11T00:01:18.481Z,3.80
2023-05-11T00:03:45.397Z,3.13
2023-05-11T00:06:12.312Z,4.05
2023-05-11T00:08:39.177Z,4.43
2023-05-11T00:11:09.612Z,4.35
2023-05-11T00:13:36.471Z,4.22
2023-05-11T00:16:04.063Z,3.83
2023-05-11T00:18:31.009Z,5.43
2023-05-11T00:20:57.953Z,4.72
2023-05-11T00:23:24.823Z,3.25
2023-05-11T00:25:51.607Z,4.57
2023-05-11T00:28:18.549Z,4.18
2023-05-11T00:30:45.427Z,4.85
2023-05-11T00:33:12.357Z,4.78
2023-05-11T00:35:39.348Z,4.00
2023-05-11T00:38:06.426Z,4.70
2023-05-11T00:40:33.573Z,4.45
2023-05-11T00:43:01.077Z,3.97
2023-05-11T00:45:28.309Z,4.22
2023-05-11T00:47:55.251Z,4.10
2023-05-11T00:50:22.188Z,3.97
2023-05-11T00:52:49.069Z,4.25
2023-05-11T00:55:19.175Z,3.92
2023-05-11T00:57:46.346Z,4.65
2023-05-11T01:00:13.669Z,3.83
2023-05-11T01:02:41.357Z,3.97
2023-05-11T01:05:08.974Z,3.90
2023-05-11T01:07:59.862Z,3.75
2023-05-11T01:10:39.919Z,3.38
2023-05-11T01:13:24.548Z,3.97
2023-05-11T01:15:58.780Z,3.65
2023-05-11T01:18:40.379Z,3.95
2023-05-11T01:21:15.424Z,4.18
2023-05-11T01:23:59.753Z,4.70
2023-05-11T01:26:39.191Z,4.28
2023-05-11T01:29:35.095Z,4.40
2023-05-11T01:32:08.368Z,3.88
2023-05-11T01:34:39.556Z,4.25
2023-05-11T01:37:27.045Z,4.00
2023-05-11T01:39:59.871Z,4.03
2023-05-11T01:42:32.542Z,3.92
2023-05-11T01:45:00.799Z,4.43
2023-05-11T01:47:30.243Z,4.60
2023-05-11T01:49:57.801Z,5.38
2023-05-11T01:52:27.249Z,3.72
2023-05-11T01:54:56.202Z,4.95
2023-05-11T01:57:24.395Z,4.53
2023-05-11T01:59:53.732Z,4.80
2023-05-11T02:02:21.759Z,4.22
2023-05-11T02:04:50.101Z,4.63
2023-05-11T02:07:19.089Z,3.90
2023-05-11T02:09:47.395Z,4.30
2023-05-11T02:12:17.905Z,4.50
2023-05-11T02:14:46.696Z,5.75
2023-05-11T02:17:16.738Z,4.47
2023-05-11T02:19:44.890Z,5.25
2023-05-11T02:22:13.410Z,5.55
2023-05-11T02:24:41.375Z,5.40
2023-05-11T02:27:08.468Z,4.88
2023-05-11T02:29:35.519Z,4.88
2023-05-11T02:32:12.263Z,4.53
2023-05-11T02:34:42.822Z,4.93
2023-05-11T02:37:15.002Z,4.30
2023-05-11T02:39:48.374Z,4.70
2023-05-11T02:42:20.817Z,4.90
2023-05-11T02:44:56.627Z,4.57
2023-05-11T02:47:32.391Z,4.60
2023-05-11T02:50:04.221Z,4.22
2023-05-11T02:52:39.582Z,4.70
2023-05-11T02:55:07.959Z,3.92
2023-05-11T02:57:34.986Z,4.38
2023-05-11T03:02:32.998Z,4.90
2023-05-11T03:04:59.953Z,4.10
2023-05-11T03:07:26.965Z,4.63
2023-05-11T03:09:53.847Z,4.05
2023-05-11T03:12:21.784Z,4.30
2023-05-11T03:14:49.411Z,4.35
2023-05-11T03:17:18.653Z,4.03
2023-05-11T03:19:46.121Z,4.87
2023-05-11T03:22:16.490Z,4.00
2023-05-11T03:24:45.102Z,6.72
2023-05-11T03:27:12.374Z,5.03
2023-05-11T03:29:43.687Z,4.25
2023-05-11T03:32:11.477Z,4.18
2023-05-11T03:34:39.225Z,3.88
2023-05-11T03:37:06.606Z,4.38
2023-05-11T03:39:35.340Z,4.65
2023-05-11T03:42:04.045Z,4.32
2023-05-11T03:44:32.811Z,4.18
2023-05-11T03:47:01.744Z,3.58
2023-05-11T03:49:29.614Z,4.43
2023-05-11T03:51:57.636Z,4.65
2023-05-11T03:54:26.301Z,6.03
2023-05-11T03:56:53.177Z,3.80
2023-05-11T03:59:20.593Z,5.03
2023-05-11T04:01:47.580Z,4.18
2023-05-11T04:04:14.460Z,5.30
2023-05-11T04:06:41.352Z,4.60
2023-05-11T04:09:18.076Z,4.43
2023-05-11T04:11:44.868Z,4.70
2023-05-11T04:14:11.741Z,4.55
2023-05-11T04:16:38.723Z,4.85
2023-05-11T04:19:06.993Z,4.45
2023-05-11T04:21:35.824Z,5.20
2023-05-11T04:24:03.541Z,4.35
2023-05-11T04:26:30.487Z,4.78
2023-05-11T04:28:57.362Z,4.10
2023-05-11T04:31:24.282Z,4.90
2023-05-11T04:33:51.241Z,3.92
2023-05-11T04:36:18.378Z,4.55
2023-05-11T04:38:45.561Z,3.95
2023-05-11T04:41:13.809Z,4.03
2023-05-11T04:43:41.003Z,4.55
2023-05-11T04:46:09.470Z,5.07
2023-05-11T04:48:36.335Z,3.45
2023-05-11T04:51:06.982Z,4.85
2023-05-11T04:53:38.903Z,5.03
2023-05-11T04:56:05.830Z,3.80
2023-05-11T04:58:32.663Z,3.63
2023-05-11T05:00:59.525Z,3.75
2023-05-11T05:03:26.535Z,3.97
2023-05-11T05:05:53.414Z,4.65
2023-05-11T05:08:21.559Z,3.85
2023-05-11T05:10:48.945Z,4.63
2023-05-11T05:13:16.968Z,3.78
2023-05-11T05:15:44.087Z,3.70
2023-05-11T05:18:11.010Z,4.05
2023-05-11T05:20:39.641Z,4.50
2023-05-11T05:23:06.528Z,4.35
2023-05-11T05:25:34.077Z,4.70
2023-05-11T05:28:01.024Z,3.58
2023-05-11T05:30:28.078Z,3.55
2023-05-11T05:32:55.317Z,3.15
2023-05-11T05:35:22.495Z,3.80
2023-05-11T05:37:49.813Z,3.83
2023-05-11T05:40:17.541Z,5.43
2023-05-11T05:45:19.281Z,3.63
2023-05-11T05:47:47.219Z,3.55
2023-05-11T05:50:14.191Z,3.88
2023-05-11T05:52:42.095Z,3.88
2023-05-11T05:55:09.531Z,3.42
2023-05-11T05:57:36.755Z,3.50
2023-05-11T06:00:04.693Z,3.75
2023-05-11T06:02:39.730Z,3.78
2023-05-11T06:05:08.815Z,2.70
2023-05-11T06:07:35.657Z,3.45
2023-05-11T06:10:02.883Z,2.47
2023-05-11T06:12:31.285Z,4.00
2023-05-11T06:14:58.252Z,3.40
2023-05-11T06:17:25.571Z,3.50
2023-05-11T06:19:52.615Z,2.85
2023-05-11T06:22:23.586Z,3.60
2023-05-11T06:24:51.064Z,3.60
2023-05-11T06:27:18.955Z,3.10
2023-05-11T06:29:46.236Z,3.00
2023-05-11T06:32:13.177Z,2.55
2023-05-11T06:34:40.338Z,2.95
2023-05-11T06:37:08.454Z,3.67
2023-05-11T06:39:37.546Z,2.85
2023-05-11T06:42:08.090Z,2.97
2023-05-11T06:44:35.021Z,2.53
2023-05-11T06:47:01.900Z,3.25
2023-05-11T06:49:28.854Z,2.60
2023-05-11T06:51:55.743Z,2.80
2023-05-11T06:54:22.797Z,2.33
2023-05-11T06:56:49.661Z,3.15
2023-05-11T06:59:16.692Z,2.47
2023-05-11T07:01:43.916Z,2.72
2023-05-11T07:04:10.943Z,2.25
2023-05-11T07:06:37.805Z,3.03
2023-05-11T07:09:05.010Z,2.28
2023-05-11T07:11:32.216Z,2.90
2023-05-11T07:13:59.158Z,2.47
2023-05-11T07:16:26.097Z,2.22
2023-05-11T07:18:53.024Z,2.30
2023-05-11T07:21:22.089Z,2.63
2023-05-11T07:23:49.031Z,2.42
2023-05-11T07:26:15.802Z,2.20
2023-05-11T07:28:42.600Z,2.90
2023-05-11T07:31:09.384Z,2.20
2023-05-11T07:33:38.637Z,2.90
2023-05-11T07:36:06.787Z,2.20
2023-05-11T07:38:33.779Z,2.58
2023-05-11T07:41:00.635Z,2.25
2023-05-11T07:43:27.400Z,2.00
2023-05-11T07:45:54.342Z,1.83
2023-05-11T07:48:21.664Z,3.30
2023-05-11T07:50:49.602Z,2.72
2023-05-11T07:53:16.717Z,2.38
2023-05-11T07:55:43.549Z,3.03
2023-05-11T07:58:10.492Z,2.40
2023-05-11T08:00:37.736Z,2.72
2023-05-11T08:03:04.686Z,2.90
2023-05-11T08:05:33.367Z,2.33
2023-05-11T08:08:00.269Z,2.35
2023-05-11T08:10:27.084Z,2.55
2023-05-11T08:12:53.892Z,2.25
2023-05-11T08:15:21.288Z,2.35
2023-05-11T08:17:48.227Z,2.45
2023-05-11T08:20:15.169Z,2.58
2023-05-11T08:22:41.973Z,2.53
2023-05-11T08:25:09.097Z,2.40
2023-05-11T08:27:36.039Z,1.95
2023-05-11T08:30:03.562Z,3.15
2023-05-11T08:32:30.548Z,2.20
2023-05-11T08:34:57.794Z,2.50
2023-05-11T08:37:24.688Z,2.53
2023-05-11T08:39:51.750Z,2.38
2023-05-11T08:42:20.039Z,2.42
2023-05-11T08:44:49.222Z,2.85
2023-05-11T08:49:46.113Z,2.83
2023-05-11T08:52:16.292Z,2.20
2023-05-11T08:54:43.153Z,2.53
2023-05-11T08:57:11.008Z,2.80
2023-05-11T08:59:38.324Z,2.65
2023-05-11T09:02:06.455Z,2.28
2023-05-11T09:04:34.309Z,2.80
2023-05-11T09:07:01.262Z,2.45
2023-05-11T09:09:28.629Z,2.78
2023-05-11T09:11:55.712Z,2.30
2023-05-11T09:14:26.953Z,2.05
2023-05-11T09:16:54.557Z,2.78
2023-05-11T09:19:21.926Z,2.60
2023-05-11T09:21:48.940Z,2.78
2023-05-11T09:24:15.810Z,2.72
2023-05-11T09:26:42.710Z,2.08
2023-05-11T09:29:09.612Z,2.25
2023-05-11T09:31:47.389Z,3.20
2023-05-11T09:34:23.834Z,2.17
2023-05-11T09:36:55.090Z,2.47
2023-05-11T09:42:15.651Z,2.97
2023-05-11T09:44:44.008Z,2.55
2023-05-11T09:47:38.780Z,2.08
2023-05-11T09:50:18.851Z,2.65
2023-05-11T09:52:52.949Z,2.35
2023-05-11T09:55:19.986Z,2.20
2023-05-11T09:57:55.244Z,2.13
2023-05-11T10:00:22.220Z,2.28
2023-05-11T10:03:21.480Z,2.08
2023-05-11T10:05:59.758Z,2.30
2023-05-11T10:08:31.157Z,2.05
2023-05-11T10:10:58.360Z,2.47
2023-05-11T10:13:26.503Z,2.20
2023-05-11T10:15:55.395Z,2.80
2023-05-11T10:18:22.852Z,1.77
2023-05-11T10:20:50.057Z,3.20
2023-05-11T10:23:20.490Z,3.17
2023-05-11T10:28:15.453Z,2.15
2023-05-11T10:30:43.073Z,2.35
2023-05-11T10:33:11.555Z,2.40
2023-05-11T10:35:39.187Z,2.38
2023-05-11T10:38:10.149Z,2.97
2023-05-11T10:40:40.860Z,2.40
2023-05-11T10:43:13.383Z,2.25
2023-05-11T10:46:01.300Z,2.67
2023-05-11T10:48:53.101Z,1.80
2023-05-11T10:51:44.184Z,2.75
2023-05-11T10:54:49.335Z,2.30
2023-05-11T10:57:40.497Z,2.75
2023-05-11T11:00:43.402Z,2.42
2023-05-11T11:03:14.761Z,2.00
2023-05-11T11:05:43.859Z,2.40
2023-05-11T11:08:11.181Z,2.30
2023-05-11T11:10:39.950Z,2.53
2023-05-11T11:13:08.698Z,2.42
2023-05-11T11:16:08.714Z,2.38
2023-05-11T11:18:35.716Z,2.50
2023-05-11T11:21:04.285Z,1.90
2023-05-11T11:23:40.509Z,2.63
2023-05-11T11:26:19.063Z,2.25
2023-05-11T11:28:54.815Z,2.10
2023-05-11T11:31:26.503Z,2.63
2023-05-11T11:33:56.188Z,2.20
2023-05-11T11:37:01.099Z,2.73
2023-05-11T11:39:30.565Z,2.35
2023-05-11T11:42:04.825Z,3.57
2023-05-11T11:44:33.898Z,2.72
2023-05-11T11:47:22.730Z,2.20
2023-05-11T11:49:54.183Z,2.28
2023-05-11T11:52:27.157Z,1.77
2023-05-11T11:54:56.406Z,2.95
2023-05-11T11:57:32.630Z,2.47
2023-05-11T12:00:09.036Z,2.90
2023-05-11T12:02:45.424Z,2.15
2023-05-11T12:05:20.159Z,2.97
2023-05-11T12:07:49.858Z,2.85
2023-05-11T12:10:18.410Z,2.23
2023-05-11T12:12:49.663Z,2.85
2023-05-11T12:15:42.707Z,2.33
2023-05-11T12:18:21.303Z,2.72
2023-05-11T12:20:48.317Z,2.20
2023-05-11T12:23:15.176Z,2.45
2023-05-11T12:25:41.967Z,2.40
2023-05-11T12:28:09.878Z,2.83
2023-05-11T12:30:36.682Z,2.10
2023-05-11T12:33:04.595Z,1.90
2023-05-11T12:35:33.973Z,2.70
2023-05-11T12:38:04.756Z,3.22
2023-05-11T12:40:31.953Z,2.33
2023-05-11T12:43:00.906Z,2.40
2023-05-11T12:45:29.202Z,2.97
2023-05-11T12:47:57.264Z,2.22
2023-05-11T12:50:24.916Z,2.70
2023-05-11T12:52:51.851Z,1.98
2023-05-11T12:55:31.161Z,2.53
2023-05-11T12:58:09.118Z,2.28
2023-05-11T13:00:36.127Z,2.50
2023-05-11T13:03:03.390Z,2.05
2023-05-11T13:05:30.897Z,2.00
2023-05-11T13:08:02.765Z,2.08
2023-05-11T13:10:30.494Z,2.53
2023-05-11T13:12:57.380Z,2.60
2023-05-11T13:15:25.538Z,2.38
2023-05-11T13:18:02.844Z,1.90
2023-05-11T13:20:33.038Z,2.67
2023-05-11T13:23:06.048Z,2.33
2023-05-11T13:25:34.484Z,2.10
2023-05-11T13:28:04.050Z,2.30
2023-05-11T13:30:33.397Z,2.65
2023-05-11T13:33:01.757Z,2.40
2023-05-11T13:35:28.622Z,2.20
2023-05-11T13:37:55.485Z,2.08
2023-05-11T13:40:22.337Z,2.33
2023-05-11T13:42:49.205Z,2.42
2023-05-11T13:45:16.290Z,2.17
2023-05-11T13:47:45.538Z,2.60
2023-05-11T13:50:12.656Z,2.30
2023-05-11T13:52:40.422Z,2.40
2023-05-11T13:55:07.904Z,2.30
2023-05-11T13:57:34.912Z,3.33
2023-05-11T14:00:01.778Z,2.10
2023-05-11T14:02:38.721Z,2.38
2023-05-11T14:05:05.976Z,2.17
2023-05-11T14:07:43.269Z,2.15
2023-05-11T14:10:13.865Z,2.10
2023-05-11T14:12:41.304Z,2.20
2023-05-11T14:15:08.853Z,1.95
2023-05-11T14:17:35.900Z,2.03
2023-05-11T14:20:03.993Z,1.75
2023-05-11T14:22:30.934Z,2.72
2023-05-11T14:24:57.783Z,2.60
2023-05-11T14:27:24.634Z,2.38
2023-05-11T14:29:52.194Z,2.00
2023-05-11T14:32:19.693Z,2.03
2023-05-11T14:34:47.719Z,2.15
2023-05-11T14:37:14.695Z,2.60
2023-05-11T14:39:41.775Z,1.77
2023-05-11T14:42:09.001Z,2.05
2023-05-11T14:44:35.902Z,2.20
2023-05-11T14:47:02.828Z,2.50
2023-05-11T14:49:29.660Z,1.95
2023-05-11T14:51:57.707Z,2.08
2023-05-11T14:54:24.749Z,2.35
2023-05-11T14:56:54.087Z,1.60
2023-05-11T14:59:21.905Z,3.53
2023-05-11T15:01:49.571Z,2.67
2023-05-11T15:04:16.984Z,1.80
2023-05-11T15:06:44.136Z,2.28
2023-05-11T15:09:11.035Z,2.42
2023-05-11T15:11:37.875Z,2.05
2023-05-11T15:14:06.453Z,2.30
2023-05-11T15:16:33.750Z,2.10
2023-05-11T15:19:00.710Z,2.38
2023-05-11T15:21:27.847Z,3.58
2023-05-11T15:23:54.861Z,2.55
2023-05-11T15:26:22.813Z,2.72
2023-05-11T15:28:50.066Z,2.25
2023-05-11T15:31:16.985Z,1.75
2023-05-11T15:33:44.853Z,2.00
2023-05-11T15:36:13.942Z,2.55
2023-05-11T15:38:41.419Z,1.90
2023-05-11T15:41:08.273Z,2.35
2023-05-11T15:43:35.358Z,2.22
2023-05-11T15:46:03.672Z,2.38
2023-05-11T15:48:30.742Z,2.85
2023-05-11T15:50:59.763Z,1.90
2023-05-11T15:53:26.915Z,2.20
2023-05-11T15:55:55.523Z,2.30
2023-05-11T15:58:22.827Z,2.50
2023-05-11T16:00:49.840Z,2.33
2023-05-11T16:03:17.197Z,1.98
2023-05-11T16:05:44.904Z,1.90
2023-05-11T16:08:12.485Z,2.55
2023-05-11T16:10:39.335Z,2.20
2023-05-11T16:13:06.408Z,1.88
2023-05-11T16:15:33.262Z,1.95
2023-05-11T16:18:02.358Z,2.10
2023-05-11T16:20:31.748Z,1.88
2023-05-11T16:22:58.556Z,2.00
2023-05-11T16:25:25.467Z,2.50
2023-05-11T16:27:52.241Z,1.98
2023-05-11T16:30:24.888Z,2.00
2023-05-11T16:32:53.705Z,1.67
2023-05-11T16:35:20.955Z,1.70
2023-05-11T16:37:48.299Z,3.53
2023-05-11T16:40:19.048Z,1.90
2023-05-11T16:42:47.383Z,2.20
2023-05-11T16:45:15.095Z,2.00
2023-05-11T16:47:43.102Z,2.08
2023-05-11T16:50:10.803Z,1.73
2023-05-11T16:52:37.596Z,2.85
2023-05-11T16:55:04.954Z,1.73
2023-05-11T16:57:31.832Z,1.65
2023-05-11T16:59:58.685Z,1.80
2023-05-11T17:02:25.699Z,1.92
2023-05-11T17:04:52.899Z,1.83
2023-05-11T17:07:19.728Z,2.83
2023-05-11T17:09:46.572Z,1.77
2023-05-11T17:12:13.406Z,1.52
2023-05-11T17:14:40.245Z,1.73
2023-05-11T17:17:08.141Z,2.40
2023-05-11T17:19:34.963Z,1.52
2023-05-11T17:22:01.804Z,3.13
2023-05-11T17:24:28.765Z,2.83
2023-05-11T17:26:55.797Z,2.33
2023-05-11T17:29:23.125Z,2.30
2023-05-11T17:31:51.909Z,3.15
2023-05-11T17:34:20.490Z,2.35
2023-05-11T17:36:48.667Z,3.05
2023-05-11T17:39:17.038Z,2.80
2023-05-11T17:41:44.018Z,2.75
2023-05-11T17:44:11.153Z,2.67
2023-05-11T17:46:38.334Z,2.60
2023-05-11T17:49:06.582Z,2.60
2023-05-11T17:51:33.564Z,2.30
2023-05-11T17:54:00.373Z,2.65
2023-05-11T17:56:27.306Z,3.78
2023-05-11T17:58:54.630Z,2.42
2023-05-11T18:01:22.641Z,3.17
2023-05-11T18:03:49.943Z,2.67
2023-05-11T18:06:17.132Z,3.00
2023-05-11T18:08:44.004Z,2.95
2023-05-11T18:11:12.781Z,2.78
2023-05-11T18:13:39.981Z,3.35
2023-05-11T18:16:07.262Z,2.50
2023-05-11T18:18:34.504Z,3.10
2023-05-11T18:21:08.497Z,2.83
2023-05-11T18:23:35.281Z,2.90
2023-05-11T18:26:02.453Z,3.15
2023-05-11T18:28:29.827Z,3.45
2023-05-11T18:30:57.352Z,2.42
2023-05-11T18:33:24.337Z,3.03
2023-05-11T18:35:52.157Z,2.50
2023-05-11T18:38:19.123Z,2.47
2023-05-11T18:40:46.005Z,2.47
2023-05-11T18:43:13.815Z,2.30
2023-05-11T18:45:41.148Z,2.22
2023-05-11T18:48:08.219Z,2.85
2023-05-11T18:50:35.794Z,3.05
2023-05-11T18:53:03.033Z,2.63
2023-05-11T18:55:35.315Z,2.78
2023-05-11T18:58:05.300Z,2.22
2023-05-11T19:00:36.867Z,2.33
2023-05-11T19:03:04.160Z,3.83
2023-05-11T19:05:31.408Z,3.65
2023-05-11T19:07:58.273Z,3.47
2023-05-11T19:10:25.094Z,2.75
2023-05-11T19:12:51.956Z,3.10
2023-05-11T19:15:19.158Z,2.97
2023-05-11T19:17:46.479Z,3.08
2023-05-11T19:20:13.662Z,2.97
2023-05-11T19:22:40.658Z,3.17
2023-05-11T19:25:08.559Z,2.83
2023-05-11T19:27:35.366Z,3.65
2023-05-11T19:30:03.398Z,3.65
2023-05-11T19:32:30.733Z,2.78
2023-05-11T19:34:57.504Z,2.95
2023-05-11T19:37:24.448Z,3.33
2023-05-11T19:39:51.594Z,2.63
2023-05-11T19:42:25.870Z,3.20
2023-05-11T19:44:58.837Z,3.03
2023-05-11T19:47:25.786Z,2.95
2023-05-11T19:49:52.657Z,3.22
2023-05-11T19:52:19.467Z,3.47
2023-05-11T19:54:46.685Z,3.50
2023-05-11T19:57:13.575Z,2.78
2023-05-11T19:59:40.535Z,3.17
2023-05-11T20:02:07.580Z,3.33
2023-05-11T20:04:34.547Z,5.07
2023-05-11T20:07:01.365Z,3.10
2023-05-11T20:09:28.233Z,3.90
2023-05-11T20:11:55.039Z,3.10
2023-05-11T20:14:22.871Z,3.65
2023-05-11T20:16:49.679Z,3.25
2023-05-11T20:19:16.555Z,3.42
2023-05-11T20:21:43.369Z,3.58
2023-05-11T20:24:10.176Z,4.03
2023-05-11T20:26:37.144Z,3.10
2023-05-11T20:29:04.427Z,3.22
2023-05-11T20:31:32.797Z,3.15
2023-05-11T20:36:30.486Z,3.30
2023-05-11T20:38:57.335Z,3.80
2023-05-11T20:41:24.135Z,3.30
2023-05-11T20:43:52.501Z,4.35
2023-05-11T20:46:19.373Z,3.90
2023-05-11T20:48:51.490Z,2.75
2023-05-11T20:51:23.101Z,3.58
2023-05-11T20:53:50.709Z,3.60
2023-05-11T20:56:17.498Z,3.88
2023-05-11T20:58:47.414Z,3.65
2023-05-11T21:01:14.379Z,3.85
2023-05-11T21:03:41.501Z,3.78
2023-05-11T21:06:08.869Z,4.53
2023-05-11T21:08:36.271Z,4.13
2023-05-11T21:11:03.237Z,4.72
2023-05-11T21:13:30.270Z,4.18
2023-05-11T21:15:57.349Z,4.68
2023-05-11T21:18:29.072Z,4.50
2023-05-11T21:20:55.982Z,4.22
2023-05-11T21:23:22.809Z,4.45
2023-05-11T21:25:53.658Z,3.60
2023-05-11T21:28:20.912Z,3.85
2023-05-11T21:30:47.782Z,3.97
2023-05-11T21:33:15.334Z,4.18
2023-05-11T21:35:42.229Z,3.95
2023-05-11T21:38:09.729Z,4.60
2023-05-11T21:40:36.751Z,4.22
2023-05-11T21:43:03.666Z,4.78
2023-05-11T21:45:30.527Z,6.18
2023-05-11T21:47:58.675Z,4.47
2023-05-11T21:50:25.890Z,5.70
2023-05-11T21:52:53.059Z,5.10
2023-05-11T21:55:19.952Z,4.45
2023-05-11T21:57:46.855Z,5.45
2023-05-11T22:00:18.515Z,5.15
2023-05-11T22:02:45.844Z,4.18
2023-05-11T22:05:12.769Z,4.68
2023-05-11T22:07:39.654Z,4.65
2023-05-11T22:10:07.004Z,4.80
2023-05-11T22:12:33.846Z,5.25
2023-05-11T22:15:00.648Z,5.03
2023-05-11T22:17:27.544Z,5.25
2023-05-11T22:19:54.437Z,5.28
2023-05-11T22:22:21.264Z,4.93
2023-05-11T22:24:48.171Z,5.05
2023-05-11T22:27:16.109Z,5.50
2023-05-11T22:29:43.622Z,4.05
2023-05-11T22:32:11.945Z,4.40
2023-05-11T22:34:38.758Z,5.25
2023-05-11T22:37:05.804Z,5.93
2023-05-11T22:39:33.364Z,6.18
2023-05-11T22:42:00.244Z,5.82
2023-05-11T22:44:28.289Z,5.53
2023-05-11T22:46:56.445Z,6.47
2023-05-11T22:49:23.300Z,6.18
2023-05-11T22:51:50.162Z,6.18
2023-05-11T22:54:17.072Z,6.82
2023-05-11T22:56:43.842Z,5.88
2023-05-11T22:59:10.619Z,6.45
2023-05-11T23:01:37.553Z,6.57
2023-05-11T23:04:04.629Z,5.50
2023-05-11T23:06:32.646Z,6.28
2023-05-11T23:08:59.457Z,6.40
2023-05-11T23:11:26.473Z,7.63
2023-05-11T23:13:53.408Z,6.13
2023-05-11T23:16:20.355Z,6.95
2023-05-11T23:18:47.393Z,6.35
2023-05-11T23:21:14.360Z,7.72
2023-05-11T23:23:44.232Z,7.00
2023-05-11T23:26:11.155Z,7.35
2023-05-11T23:28:38.065Z,6.03
2023-05-11T23:31:05.144Z,6.93
2023-05-11T23:33:32.794Z,6.97
2023-05-11T23:36:00.061Z,5.82
2023-05-11T23:38:27.885Z,6.53
2023-05-11T23:40:54.709Z,6.50
2023-05-11T23:43:22.699Z,6.70
2023-05-11T23:45:57.471Z,6.05
2023-05-11T23:48:24.625Z,6.47
2023-05-11T23:50:51.472Z,6.13
2023-05-11T23:53:18.311Z,6.07
2023-05-11T23:55:50.390Z,6.25
2023-05-11T23:58:17.193Z,5.68
